Time;durP1;ratioP1;P1;durP2;ratioP2;P2;SDS_P1;SDS_P2;PMS_P1;PMS_P2;Temp;Humidity;BMP_temperature;BMP_pressure;BME280_temperature;BME280_humidity;BME280_pressure;Samples;Min_cycle;Max_cycle;Signal;HPM_P1;HPM_P2
2022/01/31 00:02:18;;;;;;;4.87;1.60;;;6.10;99.90;;;;;;5035328;28;20212;-70
2022/01/31 00:04:43;;;;;;;4.60;1.60;;;6.10;99.90;;;;;;5034610;28;20198;-77
2022/01/31 00:07:11;;;;;;;5.87;1.80;;;6.10;99.90;;;;;;5035384;28;20468;-71
2022/01/31 00:09:40;;;;;;;4.20;1.67;;;6.10;99.90;;;;;;5038337;28;20236;-78
2022/01/31 00:12:09;;;;;;;5.70;1.77;;;6.10;99.90;;;;;;5033295;28;20184;-77
2022/01/31 00:14:44;;;;;;;6.67;2.00;;;6.10;99.90;;;;;;5038961;28;20189;-77
2022/01/31 00:17:11;;;;;;;5.20;2.10;;;6.10;99.90;;;;;;5030256;28;20235;-73
2022/01/31 00:19:41;;;;;;;5.63;1.93;;;6.10;99.90;;;;;;5035273;28;20205;-74
2022/01/31 00:22:08;;;;;;;6.57;1.80;;;6.10;99.90;;;;;;5035139;28;20468;-71
2022/01/31 00:24:38;;;;;;;7.60;2.10;;;6.00;99.90;;;;;;5026713;28;20293;-76
2022/01/31 00:27:10;;;;;;;7.00;2.00;;;6.00;99.90;;;;;;5033612;28;20178;-74
2022/01/31 00:29:36;;;;;;;4.77;1.63;;;6.00;99.90;;;;;;5034417;28;20201;-75
2022/01/31 00:32:04;;;;;;;6.57;1.87;;;6.00;99.90;;;;;;5038459;28;20208;-77
2022/01/31 00:34:31;;;;;;;4.77;1.80;;;6.00;99.90;;;;;;5050168;28;20416;-77
2022/01/31 00:36:59;;;;;;;3.77;1.60;;;5.90;99.90;;;;;;5028285;28;20197;-79
2022/01/31 00:39:25;;;;;;;5.30;1.70;;;5.90;99.90;;;;;;5033302;28;20190;-75
2022/01/31 00:41:50;;;;;;;5.17;1.73;;;5.90;99.90;;;;;;5031822;28;20453;-74
2022/01/31 00:44:40;;;;;;;7.03;1.90;;;5.90;99.90;;;;;;5028622;28;20261;-72
2022/01/31 00:47:16;;;;;;;4.17;1.77;;;5.90;99.90;;;;;;5026172;28;20182;-77
2022/01/31 00:49:49;;;;;;;4.53;1.90;;;5.90;99.90;;;;;;5034400;28;20204;-76
2022/01/31 00:52:15;;;;;;;4.23;1.87;;;5.90;99.90;;;;;;5032242;28;20186;-77
2022/01/31 00:54:49;;;;;;;5.03;1.80;;;5.90;99.90;;;;;;5031587;28;20314;-69
2022/01/31 00:57:17;;;;;;;4.90;1.80;;;6.00;99.90;;;;;;5033528;28;20177;-74
2022/01/31 00:59:53;;;;;;;5.27;1.90;;;6.00;99.90;;;;;;5030810;28;20193;-73
2022/01/31 01:02:20;;;;;;;3.20;1.70;;;6.00;99.90;;;;;;5023316;28;20193;-77
2022/01/31 01:04:49;;;;;;;4.67;1.70;;;6.00;99.90;;;;;;5037776;28;20445;-75
2022/01/31 01:07:15;;;;;;;2.83;1.40;;;6.00;99.90;;;;;;5039163;28;20174;-69
2022/01/31 01:09:42;;;;;;;4.10;1.57;;;6.00;99.90;;;;;;5048760;28;20251;-75
2022/01/31 01:12:14;;;;;;;5.97;1.80;;;6.10;99.90;;;;;;5031679;28;20227;-76
2022/01/31 01:14:43;;;;;;;5.27;1.73;;;6.10;99.90;;;;;;5032546;28;20201;-69
2022/01/31 01:17:11;;;;;;;5.77;1.57;;;6.10;99.90;;;;;;5030584;28;20224;-75
2022/01/31 01:19:39;;;;;;;3.97;1.50;;;6.10;99.90;;;;;;5033428;28;20408;-75
2022/01/31 01:22:07;;;;;;;3.00;1.30;;;6.10;99.90;;;;;;5043241;28;20182;-75
2022/01/31 01:24:33;;;;;;;2.87;1.30;;;6.10;99.90;;;;;;5025332;28;20214;-75
2022/01/31 01:26:58;;;;;;;5.83;1.80;;;6.20;99.90;;;;;;5043414;28;20180;-72
2022/01/31 01:29:24;;;;;;;5.97;1.70;;;6.20;99.90;;;;;;5029370;28;20181;-75
2022/01/31 01:31:50;;;;;;;2.10;1.30;;;6.20;99.90;;;;;;5033856;28;20174;-74
2022/01/31 01:34:20;;;;;;;4.73;1.47;;;6.20;99.90;;;;;;5027662;28;20189;-69
2022/01/31 01:36:47;;;;;;;6.80;1.50;;;6.30;99.90;;;;;;5037181;28;20240;-71
2022/01/31 01:39:13;;;;;;;4.80;1.83;;;6.30;99.90;;;;;;5032082;28;20204;-76
2022/01/31 01:41:39;;;;;;;5.57;1.70;;;6.30;99.90;;;;;;5027337;28;20177;-73
2022/01/31 01:44:05;;;;;;;4.03;1.43;;;6.30;99.90;;;;;;5035644;28;20205;-73
2022/01/31 01:46:35;;;;;;;4.73;1.50;;;6.40;99.90;;;;;;5027463;28;20221;-73
2022/01/31 01:49:03;;;;;;;5.43;1.60;;;6.40;99.90;;;;;;5030407;28;20182;-76
2022/01/31 01:51:30;;;;;;;6.07;1.67;;;6.40;99.90;;;;;;5028895;28;20183;-73
2022/01/31 01:54:03;;;;;;;4.87;1.43;;;6.40;99.90;;;;;;5029692;28;20228;-73
2022/01/31 01:56:31;;;;;;;2.97;1.40;;;6.40;99.90;;;;;;5048078;28;20217;-77
2022/01/31 01:59:04;;;;;;;3.50;1.50;;;6.50;99.90;;;;;;5046694;28;20212;-75
2022/01/31 02:01:29;;;;;;;5.13;2.07;;;6.50;99.90;;;;;;5029490;28;20232;-74
2022/01/31 02:03:55;;;;;;;4.70;1.83;;;6.50;99.90;;;;;;5033119;28;20252;-76
2022/01/31 02:06:20;;;;;;;3.93;1.23;;;6.50;99.90;;;;;;5029775;28;20169;-73
2022/01/31 02:08:46;;;;;;;3.10;1.20;;;6.60;99.90;;;;;;5040901;28;20421;-75
2022/01/31 02:11:13;;;;;;;6.63;1.40;;;6.60;99.90;;;;;;5036696;28;20170;-72
2022/01/31 02:13:44;;;;;;;6.50;1.80;;;6.60;99.90;;;;;;5025562;28;20269;-71
2022/01/31 02:16:10;;;;;;;4.77;1.60;;;6.60;99.90;;;;;;5045540;28;20237;-74
2022/01/31 02:18:43;;;;;;;4.20;1.50;;;6.60;99.90;;;;;;5031334;28;20216;-70
2022/01/31 02:21:09;;;;;;;5.13;1.57;;;6.70;99.90;;;;;;5027640;28;21115;-75
2022/01/31 02:23:35;;;;;;;5.93;1.80;;;6.70;99.90;;;;;;5031376;28;20309;-76
2022/01/31 02:26:03;;;;;;;6.87;1.80;;;6.80;99.90;;;;;;5037452;28;20215;-68
2022/01/31 02:28:32;;;;;;;8.10;2.00;;;6.80;99.90;;;;;;5040742;28;20199;-76
2022/01/31 02:31:00;;;;;;;6.30;1.80;;;6.80;99.90;;;;;;5027516;28;20186;-72
2022/01/31 02:33:26;;;;;;;4.60;1.73;;;6.90;99.90;;;;;;5026277;28;20193;-77
2022/01/31 02:35:56;;;;;;;4.93;1.47;;;6.90;99.90;;;;;;5029769;28;20182;-74
2022/01/31 02:38:23;;;;;;;4.63;1.80;;;6.90;99.90;;;;;;5041248;28;20278;-75
2022/01/31 02:40:50;;;;;;;5.17;1.93;;;7.00;99.90;;;;;;5035735;28;20259;-76
2022/01/31 02:43:30;;;;;;;4.40;1.57;;;7.00;99.90;;;;;;5037954;28;20185;-76
2022/01/31 02:45:59;;;;;;;5.10;1.63;;;7.00;99.90;;;;;;5024156;28;20305;-75
2022/01/31 02:48:33;;;;;;;4.30;1.50;;;7.10;99.90;;;;;;5041765;28;20259;-76
2022/01/31 02:50:59;;;;;;;5.43;1.87;;;7.10;99.90;;;;;;5038341;28;20175;-72
2022/01/31 02:53:29;;;;;;;5.30;1.70;;;7.10;99.90;;;;;;5035929;28;20251;-78
2022/01/31 02:56:00;;;;;;;4.47;1.60;;;7.20;99.90;;;;;;5033942;28;20276;-78
2022/01/31 02:58:27;;;;;;;6.43;1.70;;;7.20;99.90;;;;;;5036969;28;20189;-78
2022/01/31 03:00:57;;;;;;;5.07;1.63;;;7.20;99.90;;;;;;5037676;28;20284;-71
2022/01/31 03:03:25;;;;;;;5.77;1.80;;;7.30;99.90;;;;;;5041218;28;20205;-73
2022/01/31 03:05:51;;;;;;;3.27;1.43;;;7.30;99.90;;;;;;5030172;28;20293;-75
2022/01/31 03:08:16;;;;;;;5.17;1.43;;;7.30;99.90;;;;;;5036149;28;20316;-77
2022/01/31 03:10:42;;;;;;;5.83;1.70;;;7.30;99.90;;;;;;5033931;28;20223;-75
2022/01/31 03:13:11;;;;;;;4.53;1.67;;;7.30;99.90;;;;;;5035438;28;20193;-72
2022/01/31 03:15:40;;;;;;;5.30;1.50;;;7.20;99.90;;;;;;5041832;28;20190;-76
2022/01/31 03:18:06;;;;;;;5.43;1.60;;;7.20;99.90;;;;;;5037850;28;20192;-76
2022/01/31 03:20:32;;;;;;;5.33;1.53;;;7.00;99.90;;;;;;5034710;28;20209;-80
2022/01/31 03:22:59;;;;;;;4.83;1.73;;;6.90;99.90;;;;;;5035458;28;20193;-74
2022/01/31 03:25:27;;;;;;;5.60;1.93;;;6.80;99.90;;;;;;5033929;28;20216;-80
2022/01/31 03:27:52;;;;;;;5.07;1.50;;;6.70;99.90;;;;;;5033621;28;20466;-85
2022/01/31 03:30:21;;;;;;;5.73;1.67;;;6.60;99.90;;;;;;5033922;28;20188;-79
2022/01/31 03:32:52;;;;;;;4.77;1.63;;;6.50;99.90;;;;;;5035092;28;20198;-77
2022/01/31 03:35:18;;;;;;;5.10;1.87;;;6.40;99.90;;;;;;5034268;28;21216;-77
2022/01/31 03:37:49;;;;;;;6.43;1.93;;;6.30;99.90;;;;;;5034957;28;20186;-77
2022/01/31 03:40:19;;;;;;;5.57;1.70;;;6.20;99.90;;;;;;5048113;28;20209;-77
2022/01/31 03:42:47;;;;;;;5.23;1.90;;;6.10;99.90;;;;;;5038184;28;20177;-78
2022/01/31 03:45:19;;;;;;;4.27;1.50;;;6.10;99.90;;;;;;5034248;28;20193;-76
2022/01/31 03:47:46;;;;;;;4.77;1.57;;;6.00;99.90;;;;;;5033007;28;20170;-81
2022/01/31 03:50:17;;;;;;;3.80;1.30;;;6.00;99.90;;;;;;5032184;28;20182;-78
2022/01/31 03:52:45;;;;;;;4.23;1.30;;;5.90;99.90;;;;;;5034945;28;20178;-81
2022/01/31 03:55:13;;;;;;;5.63;1.60;;;5.90;99.90;;;;;;5020770;28;20265;-80
2022/01/31 03:57:41;;;;;;;3.60;1.37;;;5.90;99.90;;;;;;5029756;28;20182;-78
2022/01/31 04:00:13;;;;;;;5.47;1.50;;;5.90;99.90;;;;;;5034291;28;20182;-76
2022/01/31 04:02:44;;;;;;;5.20;1.70;;;5.80;99.90;;;;;;5036301;28;20186;-81
2022/01/31 04:05:09;;;;;;;3.73;1.30;;;5.80;99.90;;;;;;5046798;28;20312;-82
2022/01/31 04:07:35;;;;;;;3.50;1.20;;;5.80;99.90;;;;;;5034333;28;20178;-85
2022/01/31 04:10:05;;;;;;;2.17;1.07;;;5.80;99.90;;;;;;5033468;28;20182;-86
2022/01/31 04:12:33;;;;;;;3.97;1.40;;;5.90;99.90;;;;;;5033404;28;20174;-81
2022/01/31 04:15:01;;;;;;;4.90;1.10;;;5.90;99.90;;;;;;5037237;28;20177;-76
2022/01/31 04:17:26;;;;;;;3.07;1.40;;;5.90;99.90;;;;;;5034865;28;20197;-79
2022/01/31 04:19:52;;;;;;;2.50;1.00;;;5.90;99.90;;;;;;5033569;28;20194;-81
2022/01/31 04:22:23;;;;;;;2.10;1.00;;;5.90;99.90;;;;;;5031076;28;20178;-80
2022/01/31 04:24:54;;;;;;;3.20;1.00;;;5.90;99.90;;;;;;5038829;28;20221;-76
2022/01/31 04:27:19;;;;;;;3.77;1.00;;;5.80;99.90;;;;;;5033135;28;20213;-77
2022/01/31 04:29:47;;;;;;;3.33;0.90;;;5.80;99.90;;;;;;5029709;28;20308;-79
2022/01/31 04:32:15;;;;;;;2.20;0.90;;;5.90;99.90;;;;;;5032267;28;20178;-80
2022/01/31 04:34:45;;;;;;;2.60;0.70;;;5.90;99.90;;;;;;5048798;28;20189;-78
2022/01/31 04:37:11;;;;;;;2.03;0.60;;;5.80;99.90;;;;;;5033809;28;20188;-84
2022/01/31 04:39:37;;;;;;;0.93;0.60;;;5.90;99.90;;;;;;5034095;28;20280;-80
2022/01/31 04:42:08;;;;;;;1.30;0.60;;;5.90;99.90;;;;;;5033625;28;20201;-77
2022/01/31 04:44:36;;;;;;;1.00;0.50;;;5.90;99.90;;;;;;5034661;28;20217;-80
2022/01/31 04:47:03;;;;;;;1.13;0.60;;;5.90;99.90;;;;;;5043005;28;20239;-82
2022/01/31 04:49:28;;;;;;;1.80;0.50;;;5.90;99.90;;;;;;5041791;28;20181;-86
2022/01/31 04:51:54;;;;;;;1.63;0.53;;;5.90;99.90;;;;;;5034463;28;20178;-83
2022/01/31 04:54:22;;;;;;;0.50;0.50;;;6.00;99.90;;;;;;5026527;28;20293;-84
2022/01/31 04:56:47;;;;;;;0.50;0.40;;;6.00;99.90;;;;;;5036178;28;20192;-86
2022/01/31 04:59:17;;;;;;;0.77;0.50;;;6.00;99.90;;;;;;5051093;28;20185;-87
2022/01/31 05:01:43;;;;;;;0.40;0.33;;;6.00;99.90;;;;;;5037977;28;20228;-89
2022/01/31 05:04:09;;;;;;;0.80;0.43;;;6.10;99.90;;;;;;5038623;28;20649;-81
2022/01/31 05:06:38;;;;;;;1.17;0.50;;;6.10;99.90;;;;;;5047719;28;20191;-61
2022/01/31 05:09:07;;;;;;;0.83;0.53;;;6.10;99.90;;;;;;5051518;28;20293;-61
2022/01/31 05:11:33;;;;;;;0.60;0.40;;;6.10;99.90;;;;;;5042934;28;20182;-82
2022/01/31 05:14:00;;;;;;;1.17;0.50;;;6.20;99.90;;;;;;5036182;28;20304;-81
2022/01/31 05:16:26;;;;;;;0.90;0.60;;;6.20;99.90;;;;;;5038402;28;20338;-60
2022/01/31 05:18:54;;;;;;;1.77;0.80;;;6.20;99.90;;;;;;5047478;28;20225;-60
2022/01/31 05:21:22;;;;;;;1.67;0.70;;;6.30;99.90;;;;;;5051429;28;20181;-60
2022/01/31 05:23:50;;;;;;;2.10;0.87;;;6.30;99.90;;;;;;5051938;28;20190;-62
2022/01/31 05:26:16;;;;;;;1.87;1.00;;;6.40;99.90;;;;;;5045713;28;20201;-84
2022/01/31 05:28:44;;;;;;;4.37;1.30;;;6.40;99.90;;;;;;5033633;28;20213;-83
2022/01/31 05:31:12;;;;;;;2.33;1.27;;;6.40;99.90;;;;;;5031629;28;20192;-86
2022/01/31 05:33:38;;;;;;;3.53;1.30;;;6.50;99.90;;;;;;5032035;28;20206;-82
2022/01/31 05:36:04;;;;;;;2.97;1.30;;;6.50;99.90;;;;;;5033037;28;20182;-84
2022/01/31 05:38:34;;;;;;;4.47;1.50;;;6.60;99.90;;;;;;5033017;28;20181;-79
2022/01/31 05:41:04;;;;;;;4.47;1.50;;;6.60;99.90;;;;;;5031524;28;20188;-76
2022/01/31 05:43:35;;;;;;;1.87;1.10;;;6.70;99.90;;;;;;5033853;28;20197;-81
2022/01/31 05:46:05;;;;;;;2.60;1.30;;;6.80;99.90;;;;;;5041370;28;20197;-82
2022/01/31 05:48:31;;;;;;;3.83;1.90;;;6.80;99.90;;;;;;5029304;28;20276;-84
2022/01/31 05:50:57;;;;;;;2.27;1.30;;;6.80;99.90;;;;;;5034957;28;20300;-83
2022/01/31 05:53:25;;;;;;;4.00;1.60;;;6.90;99.90;;;;;;5049975;28;20177;-83
2022/01/31 05:55:50;;;;;;;3.77;1.40;;;6.90;99.90;;;;;;5031163;28;20185;-84
2022/01/31 05:58:18;;;;;;;2.97;1.73;;;7.00;99.90;;;;;;5029988;28;20209;-82
2022/01/31 06:00:46;;;;;;;2.90;1.60;;;7.00;99.90;;;;;;5037745;28;20174;-82
2022/01/31 06:03:12;;;;;;;4.73;1.80;;;7.10;99.90;;;;;;5031941;28;20170;-79
2022/01/31 06:05:37;;;;;;;4.73;2.03;;;7.10;99.90;;;;;;5033019;28;20218;-84
2022/01/31 06:08:06;;;;;;;4.53;1.73;;;7.10;99.90;;;;;;5033229;28;20304;-82
2022/01/31 06:10:33;;;;;;;5.57;2.03;;;7.20;99.90;;;;;;5033280;28;20170;-82
2022/01/31 06:12:59;;;;;;;3.90;1.73;;;7.20;99.90;;;;;;5031017;28;20223;-82
2022/01/31 06:15:24;;;;;;;4.50;2.00;;;7.20;99.90;;;;;;5031570;28;20257;-84
2022/01/31 06:17:50;;;;;;;3.63;1.77;;;7.30;99.90;;;;;;5037186;28;20323;-86
2022/01/31 06:20:19;;;;;;;4.10;1.83;;;7.30;99.90;;;;;;5034608;28;20239;-83
2022/01/31 06:22:50;;;;;;;4.17;1.90;;;7.30;99.90;;;;;;5034075;28;20185;-84
2022/01/31 06:25:17;;;;;;;3.67;1.67;;;7.40;99.90;;;;;;5037613;28;20290;-83
2022/01/31 06:27:44;;;;;;;5.83;1.63;;;7.40;99.90;;;;;;5033905;28;20273;-79
2022/01/31 06:30:10;;;;;;;4.80;1.60;;;7.40;99.90;;;;;;5036883;28;20258;-85
2022/01/31 06:32:39;;;;;;;4.30;1.80;;;7.50;99.90;;;;;;5040539;28;20189;-79
2022/01/31 06:35:08;;;;;;;7.47;2.03;;;7.50;99.90;;;;;;5036607;28;20193;-83
2022/01/31 06:37:37;;;;;;;3.33;1.50;;;7.50;99.90;;;;;;5034790;28;20178;-82
2022/01/31 06:40:03;;;;;;;4.13;1.80;;;7.60;99.90;;;;;;5036705;28;20182;-77
2022/01/31 06:42:29;;;;;;;4.70;1.73;;;7.60;99.90;;;;;;5036129;28;20264;-76
2022/01/31 06:44:55;;;;;;;5.33;1.67;;;7.60;99.90;;;;;;5036608;28;20297;-77
2022/01/31 06:47:28;;;;;;;6.40;2.17;;;7.70;99.90;;;;;;5032372;28;20201;-73
2022/01/31 06:49:53;;;;;;;4.23;1.50;;;7.70;99.90;;;;;;5035532;28;20265;-75
2022/01/31 06:52:19;;;;;;;6.13;1.73;;;7.70;99.90;;;;;;5041834;28;20272;-72
2022/01/31 06:54:50;;;;;;;5.33;1.53;;;7.80;99.90;;;;;;5035122;28;20182;-71
2022/01/31 06:57:22;;;;;;;5.53;2.00;;;7.80;99.90;;;;;;5035794;28;20198;-75
2022/01/31 06:59:50;;;;;;;4.63;1.57;;;7.80;99.90;;;;;;5027760;28;20175;-74
2022/01/31 07:02:15;;;;;;;5.60;1.67;;;7.90;99.90;;;;;;5043600;28;20177;-75
2022/01/31 07:04:41;;;;;;;5.07;1.83;;;7.90;99.90;;;;;;5027471;28;20208;-76
2022/01/31 07:07:09;;;;;;;7.40;1.70;;;7.90;99.90;;;;;;5048491;28;20484;-74
2022/01/31 07:09:37;;;;;;;5.87;1.87;;;7.90;99.90;;;;;;5031329;28;20204;-75
2022/01/31 07:12:09;;;;;;;5.87;2.00;;;7.90;99.90;;;;;;5034700;28;20269;-72
2022/01/31 07:14:35;;;;;;;4.07;2.00;;;7.90;99.90;;;;;;5033829;28;20181;-72
2022/01/31 07:17:05;;;;;;;3.70;1.60;;;7.90;99.90;;;;;;5029672;28;20178;-71
2022/01/31 07:19:36;;;;;;;3.60;1.77;;;7.90;99.90;;;;;;5044446;28;20193;-75
2022/01/31 07:22:06;;;;;;;8.37;1.97;;;8.00;99.90;;;;;;5034331;28;20174;-73
2022/01/31 07:24:46;;;;;;;5.20;1.90;;;8.00;99.90;;;;;;5032858;28;20269;-74
2022/01/31 07:27:12;;;;;;;5.33;1.90;;;8.00;99.90;;;;;;5037425;28;20674;-80
2022/01/31 07:29:40;;;;;;;6.57;2.00;;;8.00;99.90;;;;;;5035835;28;20202;-79
2022/01/31 07:32:10;;;;;;;5.60;1.80;;;7.90;99.90;;;;;;5048415;28;20170;-77
2022/01/31 07:34:42;;;;;;;5.57;1.83;;;7.90;99.90;;;;;;5035976;28;20166;-81
2022/01/31 07:37:11;;;;;;;5.80;2.00;;;7.70;99.90;;;;;;5035665;28;20204;-83
2022/01/31 07:39:42;;;;;;;4.83;1.93;;;7.60;99.90;;;;;;5029732;28;20193;-83
2022/01/31 07:42:13;;;;;;;4.83;1.80;;;7.50;99.90;;;;;;5025993;28;20174;-84
2022/01/31 07:44:41;;;;;;;7.67;2.00;;;7.30;99.90;;;;;;5051975;28;20221;-86
2022/01/31 07:47:07;;;;;;;4.60;1.80;;;7.30;99.90;;;;;;5029220;28;20226;-83
2022/01/31 07:49:32;;;;;;;6.00;2.17;;;7.20;99.90;;;;;;5021555;28;20217;-84
2022/01/31 07:52:01;;;;;;;8.17;1.83;;;7.10;99.90;;;;;;5035264;28;20181;-79
2022/01/31 07:54:29;;;;;;;7.20;2.10;;;7.00;99.90;;;;;;5035676;28;20182;-88
2022/01/31 07:56:57;;;;;;;5.23;1.83;;;6.90;99.90;;;;;;5029310;28;20211;-83
2022/01/31 07:59:25;;;;;;;4.03;1.70;;;6.90;99.90;;;;;;5035027;28;20174;-85
2022/01/31 08:01:51;;;;;;;6.60;2.20;;;6.80;99.90;;;;;;5048242;28;20277;-78
2022/01/31 08:04:16;;;;;;;4.63;1.60;;;6.80;99.90;;;;;;5021918;28;20288;-80
2022/01/31 08:06:42;;;;;;;4.00;1.77;;;6.70;99.90;;;;;;5032683;28;20198;-78
2022/01/31 08:09:07;;;;;;;7.63;1.53;;;6.60;99.90;;;;;;5032060;28;20193;-79
2022/01/31 08:11:35;;;;;;;7.00;1.67;;;6.60;99.90;;;;;;5032155;28;20181;-77
2022/01/31 08:14:07;;;;;;;5.10;1.80;;;6.50;99.90;;;;;;5032244;28;20181;-78
2022/01/31 08:16:37;;;;;;;7.00;2.07;;;6.50;99.90;;;;;;5033331;28;20175;-79
2022/01/31 08:19:08;;;;;;;4.13;1.70;;;6.50;99.90;;;;;;5034364;28;20200;-83
2022/01/31 08:21:35;;;;;;;5.47;1.53;;;6.40;99.90;;;;;;5033929;28;20232;-80
2022/01/31 08:24:04;;;;;;;4.43;1.83;;;6.40;99.90;;;;;;5031588;28;20190;-75
2022/01/31 08:26:32;;;;;;;6.83;2.40;;;6.40;99.90;;;;;;5030412;28;20200;-77
2022/01/31 08:29:05;;;;;;;5.13;1.93;;;6.40;99.90;;;;;;5045123;28;20205;-76
2022/01/31 08:31:35;;;;;;;7.40;1.80;;;6.40;99.90;;;;;;5026718;28;20174;-74
2022/01/31 08:34:07;;;;;;;8.30;2.07;;;6.40;99.90;;;;;;5031080;28;20179;-75
2022/01/31 08:36:34;;;;;;;6.10;2.00;;;6.40;99.90;;;;;;5033980;28;20186;-72
2022/01/31 08:39:08;;;;;;;3.33;1.90;;;6.40;99.90;;;;;;5031616;28;20265;-76
2022/01/31 08:41:36;;;;;;;3.00;1.67;;;6.40;99.90;;;;;;5031733;28;20182;-77
2022/01/31 08:44:03;;;;;;;8.73;2.37;;;6.40;99.90;;;;;;5029147;28;20185;-80
2022/01/31 08:46:28;;;;;;;6.27;1.90;;;6.50;99.90;;;;;;5022366;28;20182;-82
2022/01/31 08:48:55;;;;;;;4.27;1.90;;;6.50;99.90;;;;;;5030203;28;20178;-82
2022/01/31 08:51:25;;;;;;;5.77;2.00;;;6.60;99.90;;;;;;5031744;28;20181;-75
2022/01/31 08:53:53;;;;;;;5.20;1.93;;;6.60;99.90;;;;;;5032203;28;20177;-75
2022/01/31 08:56:21;;;;;;;3.43;1.90;;;6.60;99.90;;;;;;5029607;28;20189;-80
2022/01/31 08:58:47;;;;;;;5.20;2.10;;;6.70;99.90;;;;;;5033076;28;20316;-81
2022/01/31 09:01:18;;;;;;;4.17;1.87;;;6.70;99.90;;;;;;5033485;28;20379;-77
2022/01/31 09:06:20;;;;;;;5.97;1.80;;;6.70;99.90;;;;;;5022460;28;20210;-76
2022/01/31 09:08:46;;;;;;;5.63;2.03;;;6.70;99.90;;;;;;5032151;28;20237;-79
2022/01/31 09:11:17;;;;;;;4.67;1.80;;;6.70;99.90;;;;;;5037855;28;20197;-79
2022/01/31 09:13:50;;;;;;;6.33;1.43;;;6.70;99.90;;;;;;5038056;28;20209;-80
2022/01/31 09:16:18;;;;;;;3.90;1.83;;;6.70;99.90;;;;;;5033379;28;20182;-75
2022/01/31 09:18:44;;;;;;;4.43;1.57;;;6.70;99.90;;;;;;5032679;28;20193;-74
2022/01/31 09:21:12;;;;;;;4.47;1.80;;;6.70;99.90;;;;;;5034115;28;20182;-74
2022/01/31 09:23:40;;;;;;;4.00;1.77;;;6.70;99.90;;;;;;5036506;28;20182;-75
2022/01/31 09:26:08;;;;;;;6.83;2.00;;;6.70;99.90;;;;;;5030084;28;20201;-76
2022/01/31 09:28:36;;;;;;;7.33;2.10;;;6.70;99.90;;;;;;5036259;28;20169;-73
2022/01/31 09:31:02;;;;;;;6.03;1.90;;;6.70;99.90;;;;;;5036525;28;20181;-74
2022/01/31 09:33:28;;;;;;;6.63;2.00;;;6.60;99.90;;;;;;5031957;28;20188;-74
2022/01/31 09:35:57;;;;;;;4.37;1.60;;;6.60;99.90;;;;;;5046038;28;20194;-78
2022/01/31 09:38:25;;;;;;;4.60;1.67;;;6.60;99.90;;;;;;5044906;28;20466;-77
2022/01/31 09:40:53;;;;;;;2.67;1.40;;;6.60;99.90;;;;;;5025437;28;20186;-78
2022/01/31 09:48:36;;;;;;;3.43;1.70;;;6.50;99.90;;;;;;5032815;28;20197;-75
2022/01/31 09:51:34;;;;;;;4.33;1.93;;;6.60;99.90;;;;;;5031464;28;20189;-74
2022/01/31 09:54:02;;;;;;;7.43;1.93;;;6.60;99.90;;;;;;4998666;28;20202;-74
2022/01/31 09:56:34;;;;;;;5.73;1.60;;;6.60;99.90;;;;;;5032143;28;20261;-72
2022/01/31 09:59:01;;;;;;;4.13;1.50;;;6.50;99.90;;;;;;5034295;28;20207;-77
2022/01/31 10:01:33;;;;;;;5.47;1.80;;;6.60;99.90;;;;;;5032078;28;20180;-78
2022/01/31 10:04:22;;;;;;;6.80;2.00;;;6.50;99.90;;;;;;5042318;28;20180;-74
2022/01/31 10:06:58;;;;;;;6.40;2.00;;;6.50;99.90;;;;;;5031675;28;20170;-78
2022/01/31 10:09:28;;;;;;;5.20;1.90;;;6.50;99.90;;;;;;5032567;28;20181;-73
2022/01/31 10:12:10;;;;;;;5.40;1.80;;;6.50;99.90;;;;;;5029716;28;20232;-72
2022/01/31 10:17:27;;;;;;;3.93;1.40;;;6.40;99.90;;;;;;5030059;28;20181;-72
2022/01/31 10:19:55;;;;;;;7.10;1.63;;;6.40;99.90;;;;;;5031265;28;20189;-71
2022/01/31 10:22:23;;;;;;;7.10;1.93;;;6.40;99.90;;;;;;5045765;28;20178;-73
2022/01/31 10:24:51;;;;;;;5.60;1.93;;;6.40;99.90;;;;;;5039631;28;20210;-71
2022/01/31 10:27:22;;;;;;;3.60;1.57;;;6.30;99.90;;;;;;5032212;28;20380;-70
2022/01/31 10:29:52;;;;;;;6.00;1.70;;;6.30;99.90;;;;;;5030978;28;20304;-71
2022/01/31 10:32:33;;;;;;;6.00;1.50;;;6.30;99.90;;;;;;5030763;28;20178;-77
2022/01/31 10:35:01;;;;;;;5.27;1.67;;;6.30;99.90;;;;;;5043128;28;20420;-74
2022/01/31 10:37:31;;;;;;;4.03;1.57;;;6.30;99.90;;;;;;5034534;28;20217;-75
2022/01/31 10:54:13;;;;;;;12.93;2.17;;;6.10;99.90;;;;;;5023644;28;20229;-74
2022/01/31 10:57:05;;;;;;;7.80;2.03;;;6.00;99.90;;;;;;5025548;28;20183;-74
2022/01/31 10:59:32;;;;;;;5.37;1.80;;;6.00;99.90;;;;;;5031715;28;20208;-75
2022/01/31 11:02:03;;;;;;;8.20;2.03;;;6.00;99.90;;;;;;5045322;28;20198;-71
2022/01/31 11:04:40;;;;;;;5.43;1.90;;;6.00;99.90;;;;;;5034413;28;20292;-73
2022/01/31 11:07:14;;;;;;;6.30;1.77;;;6.00;99.90;;;;;;5026622;28;20244;-72
2022/01/31 11:09:45;;;;;;;7.57;2.00;;;6.00;99.90;;;;;;5031768;28;20181;-73
2022/01/31 11:12:12;;;;;;;6.60;1.83;;;5.90;99.90;;;;;;5032442;28;20178;-70
2022/01/31 11:14:43;;;;;;;8.93;2.00;;;6.00;99.90;;;;;;5026094;28;20190;-71
2022/01/31 11:17:16;;;;;;;5.50;1.70;;;5.90;99.90;;;;;;5034188;28;20209;-71
2022/01/31 11:19:49;;;;;;;7.23;1.70;;;6.00;99.90;;;;;;5034343;28;20181;-69
2022/01/31 11:22:27;;;;;;;7.83;1.87;;;6.00;99.90;;;;;;5042151;28;20200;-72
2022/01/31 11:24:58;;;;;;;8.10;1.83;;;6.00;99.90;;;;;;5041109;28;20224;-78
2022/01/31 11:27:30;;;;;;;6.43;1.50;;;6.00;99.90;;;;;;5035479;28;20174;-76
2022/01/31 11:29:57;;;;;;;7.63;1.70;;;6.00;99.90;;;;;;5049761;28;20169;-73
2022/01/31 11:32:26;;;;;;;6.90;1.80;;;6.00;99.90;;;;;;5035214;28;20213;-69
2022/01/31 11:34:55;;;;;;;8.27;1.90;;;6.00;99.90;;;;;;5030867;28;20186;-71
2022/01/31 11:37:25;;;;;;;9.70;2.07;;;6.00;99.90;;;;;;5050016;28;20217;-69
2022/01/31 11:40:00;;;;;;;8.77;2.00;;;6.00;99.90;;;;;;5034835;28;20182;-69
2022/01/31 11:42:27;;;;;;;6.00;1.60;;;6.00;99.90;;;;;;5032113;28;20234;-70
2022/01/31 11:45:11;;;;;;;7.30;2.07;;;6.00;99.90;;;;;;5031874;28;20207;-70
2022/01/31 11:47:37;;;;;;;8.43;2.00;;;6.00;99.90;;;;;;5038926;28;20184;-70
2022/01/31 11:50:08;;;;;;;10.07;2.37;;;6.00;99.90;;;;;;5031368;28;20178;-70
2022/01/31 11:52:53;;;;;;;8.63;2.27;;;6.00;99.90;;;;;;5030583;28;20274;-73
2022/01/31 11:55:22;;;;;;;8.90;2.27;;;6.00;99.90;;;;;;5033062;28;20348;-70
2022/01/31 11:57:50;;;;;;;7.67;1.90;;;6.00;99.90;;;;;;5033819;28;20276;-70
2022/01/31 12:00:21;;;;;;;6.33;2.10;;;6.00;99.90;;;;;;5034764;28;20181;-70
2022/01/31 12:02:53;;;;;;;9.67;2.27;;;6.00;99.90;;;;;;5032230;28;20216;-69
2022/01/31 12:05:31;;;;;;;5.90;1.73;;;6.00;99.90;;;;;;5037152;28;20212;-70
2022/01/31 12:08:08;;;;;;;10.33;2.37;;;6.00;99.90;;;;;;5034247;28;20197;-68
2022/01/31 12:10:41;;;;;;;10.87;2.00;;;6.00;99.90;;;;;;5049085;28;20169;-69
2022/01/31 12:13:32;;;;;;;11.97;2.57;;;6.00;99.90;;;;;;5039089;28;20256;-71
2022/01/31 12:18:47;;;;;;;13.60;2.30;;;6.10;99.90;;;;;;5034724;28;20178;-71
2022/01/31 12:24:04;;;;;;;9.27;2.10;;;6.10;99.90;;;;;;5028244;28;20196;-73
2022/01/31 12:26:34;;;;;;;8.60;2.43;;;6.10;99.90;;;;;;5033235;28;20285;-73
2022/01/31 12:29:07;;;;;;;9.47;2.47;;;6.10;99.90;;;;;;5054168;28;20174;-72
2022/01/31 12:31:43;;;;;;;9.50;2.80;;;6.10;99.90;;;;;;5032772;28;20208;-73
2022/01/31 12:34:29;;;;;;;9.40;2.30;;;6.10;99.90;;;;;;5034121;28;20436;-71
2022/01/31 12:36:59;;;;;;;10.93;2.33;;;6.10;99.90;;;;;;5031990;28;20197;-79
2022/01/31 12:39:42;;;;;;;9.40;2.67;;;6.10;99.90;;;;;;5033308;28;20200;-70
2022/01/31 12:42:44;;;;;;;7.13;2.03;;;6.10;99.90;;;;;;5028285;28;20166;-71
2022/01/31 12:45:16;;;;;;;10.03;2.20;;;6.10;99.90;;;;;;5032375;28;20205;-72
2022/01/31 12:48:12;;;;;;;9.33;1.97;;;6.20;99.90;;;;;;5032091;28;20173;-71
2022/01/31 12:50:43;;;;;;;8.77;2.07;;;6.10;99.90;;;;;;5045504;28;20205;-73
2022/01/31 12:53:26;;;;;;;8.53;2.23;;;6.10;99.90;;;;;;5053650;28;20194;-72
2022/01/31 12:56:21;;;;;;;8.07;1.93;;;6.10;99.90;;;;;;5028011;28;20193;-73
2022/01/31 12:59:22;;;;;;;13.10;3.13;;;6.10;99.90;;;;;;5035480;28;20211;-74
2022/01/31 13:01:53;;;;;;;8.60;1.63;;;6.10;99.90;;;;;;4958361;28;20183;-72
2022/01/31 13:04:22;;;;;;;7.67;2.47;;;6.10;99.90;;;;;;5022564;28;20276;-72
2022/01/31 13:06:51;;;;;;;7.77;2.17;;;6.10;99.90;;;;;;5027387;28;20174;-75
2022/01/31 13:09:22;;;;;;;9.87;2.43;;;6.10;99.90;;;;;;5032453;28;20210;-70
2022/01/31 13:11:53;;;;;;;9.20;2.23;;;6.10;99.90;;;;;;5033951;28;21275;-72
2022/01/31 13:14:27;;;;;;;12.07;2.27;;;6.10;99.90;;;;;;5032592;28;20198;-72
2022/01/31 13:17:27;;;;;;;8.10;2.10;;;6.10;99.90;;;;;;5030976;28;20264;-72
2022/01/31 13:19:52;;;;;;;9.70;2.10;;;6.10;99.90;;;;;;5015875;28;20179;-70
2022/01/31 13:22:41;;;;;;;8.00;2.03;;;6.10;99.90;;;;;;5033246;28;20170;-73
2022/01/31 13:25:14;;;;;;;15.03;3.33;;;6.00;99.90;;;;;;5046426;28;20296;-71
2022/01/31 13:27:47;;;;;;;11.27;2.27;;;6.00;99.90;;;;;;5020376;28;20233;-74
2022/01/31 13:30:42;;;;;;;7.47;2.23;;;6.00;99.90;;;;;;5032840;28;20181;-71
2022/01/31 13:33:12;;;;;;;7.23;1.80;;;6.00;99.90;;;;;;5032089;28;20247;-73
2022/01/31 13:35:40;;;;;;;9.17;2.43;;;6.00;99.90;;;;;;5032023;28;20280;-71
2022/01/31 13:38:09;;;;;;;8.30;2.30;;;6.00;99.90;;;;;;5036862;28;20214;-73
2022/01/31 13:40:42;;;;;;;11.00;2.70;;;6.00;99.90;;;;;;5032918;28;20237;-72
2022/01/31 13:43:26;;;;;;;10.53;2.37;;;6.00;99.90;;;;;;5030284;28;20171;-72